sensor_id;sensor_type;location;lat;lon;timestamp;pressure;altitude;pressure_sealevel;temperature;humidity
84255;BME280;74400;44.692;18.998;2024-02-23T00:02:09;98934.16;;;13.55;39.91
84255;BME280;74400;44.692;18.998;2024-02-23T00:04:35;98927.38;;;13.54;40.67
84255;BME280;74400;44.692;18.998;2024-02-23T00:07:01;98928.53;;;13.42;40.91
84255;BME280;74400;44.692;18.998;2024-02-23T00:09:28;98924.47;;;13.30;41.28
84255;BME280;74400;44.692;18.998;2024-02-23T00:11:54;98914.72;;;13.23;41.88
84255;BME280;74400;44.692;18.998;2024-02-23T00:14:19;98917.84;;;13.17;40.75
84255;BME280;74400;44.692;18.998;2024-02-23T00:16:46;98915.53;;;13.24;40.67
84255;BME280;74400;44.692;18.998;2024-02-23T00:21:38;98919.88;;;13.33;41.36
84255;BME280;74400;44.692;18.998;2024-02-23T00:24:06;98918.75;;;13.36;41.95
84255;BME280;74400;44.692;18.998;2024-02-23T00:26:31;98919.72;;;13.25;42.28
84255;BME280;74400;44.692;18.998;2024-02-23T00:28:57;98913.63;;;13.16;42.97
84255;BME280;74400;44.692;18.998;2024-02-23T00:31:23;98913.94;;;13.04;43.30
84255;BME280;74400;44.692;18.998;2024-02-23T00:33:48;98910.44;;;12.95;43.74
84255;BME280;74400;44.692;18.998;2024-02-23T00:36:14;98915.19;;;12.80;44.47
84255;BME280;74400;44.692;18.998;2024-02-23T00:38:40;98914.53;;;12.68;43.95
84255;BME280;74400;44.692;18.998;2024-02-23T00:41:06;98909.25;;;12.70;43.80
84255;BME280;74400;44.692;18.998;2024-02-23T00:43:41;98913.31;;;12.72;43.53
84255;BME280;74400;44.692;18.998;2024-02-23T00:46:08;98905.59;;;12.72;43.45
84255;BME280;74400;44.692;18.998;2024-02-23T00:48:33;98914.25;;;12.81;43.21
84255;BME280;74400;44.692;18.998;2024-02-23T00:50:59;98909.94;;;12.82;43.59
84255;BME280;74400;44.692;18.998;2024-02-23T00:53:26;98909.22;;;12.80;44.38
84255;BME280;74400;44.692;18.998;2024-02-23T00:55:52;98917.38;;;12.85;43.31
84255;BME280;74400;44.692;18.998;2024-02-23T00:58:17;98913.53;;;12.98;42.80
84255;BME280;74400;44.692;18.998;2024-02-23T01:00:44;98922.09;;;13.09;42.88
84255;BME280;74400;44.692;18.998;2024-02-23T01:03:09;98929.13;;;13.07;43.68
84255;BME280;74400;44.692;18.998;2024-02-23T01:05:35;98930.25;;;13.04;43.34
84255;BME280;74400;44.692;18.998;2024-02-23T01:08:01;98924.53;;;13.10;44.32
84255;BME280;74400;44.692;18.998;2024-02-23T01:10:26;98932.00;;;13.04;44.03
84255;BME280;74400;44.692;18.998;2024-02-23T01:12:52;98931.63;;;12.89;44.95
84255;BME280;74400;44.692;18.998;2024-02-23T01:15:18;98929.88;;;12.89;44.77
84255;BME280;74400;44.692;18.998;2024-02-23T01:17:44;98922.66;;;12.93;44.14
84255;BME280;74400;44.692;18.998;2024-02-23T01:20:09;98923.44;;;13.03;43.45
84255;BME280;74400;44.692;18.998;2024-02-23T01:22:35;98925.56;;;13.17;43.04
84255;BME280;74400;44.692;18.998;2024-02-23T01:25:01;98913.22;;;13.11;43.50
84255;BME280;74400;44.692;18.998;2024-02-23T01:27:26;98911.22;;;13.05;44.27
84255;BME280;74400;44.692;18.998;2024-02-23T01:29:52;98906.56;;;13.18;42.64
84255;BME280;74400;44.692;18.998;2024-02-23T01:32:18;98900.69;;;13.36;42.20
84255;BME280;74400;44.692;18.998;2024-02-23T01:34:43;98897.75;;;13.48;41.88
84255;BME280;74400;44.692;18.998;2024-02-23T01:37:09;98902.59;;;13.61;41.44
84255;BME280;74400;44.692;18.998;2024-02-23T01:39:35;98895.75;;;13.70;41.34
84255;BME280;74400;44.692;18.998;2024-02-23T01:42:00;98896.28;;;13.73;41.77
84255;BME280;74400;44.692;18.998;2024-02-23T01:44:26;98887.84;;;13.71;41.30
84255;BME280;74400;44.692;18.998;2024-02-23T01:46:52;98895.25;;;13.84;40.81
84255;BME280;74400;44.692;18.998;2024-02-23T01:49:17;98899.31;;;13.87;40.94
84255;BME280;74400;44.692;18.998;2024-02-23T01:51:43;98888.03;;;13.88;41.73
84255;BME280;74400;44.692;18.998;2024-02-23T01:54:09;98891.94;;;13.92;41.21
84255;BME280;74400;44.692;18.998;2024-02-23T01:56:36;98887.38;;;13.86;41.22
84255;BME280;74400;44.692;18.998;2024-02-23T01:59:02;98899.16;;;13.88;41.14
84255;BME280;74400;44.692;18.998;2024-02-23T02:01:30;98884.03;;;13.93;41.09
84255;BME280;74400;44.692;18.998;2024-02-23T02:03:55;98879.53;;;13.95;41.04
84255;BME280;74400;44.692;18.998;2024-02-23T02:06:22;98864.81;;;13.96;40.85
84255;BME280;74400;44.692;18.998;2024-02-23T02:08:48;98870.69;;;13.98;40.72
84255;BME280;74400;44.692;18.998;2024-02-23T02:11:14;98864.25;;;14.02;41.10
84255;BME280;74400;44.692;18.998;2024-02-23T02:13:40;98870.97;;;14.13;40.85
84255;BME280;74400;44.692;18.998;2024-02-23T02:16:06;98871.72;;;14.05;41.20
84255;BME280;74400;44.692;18.998;2024-02-23T02:18:32;98877.53;;;14.07;40.72
84255;BME280;74400;44.692;18.998;2024-02-23T02:20:58;98868.00;;;14.07;41.25
84255;BME280;74400;44.692;18.998;2024-02-23T02:23:24;98868.31;;;14.04;41.42
84255;BME280;74400;44.692;18.998;2024-02-23T02:25:58;98878.88;;;13.93;41.87
84255;BME280;74400;44.692;18.998;2024-02-23T02:28:25;98871.63;;;13.79;42.39
84255;BME280;74400;44.692;18.998;2024-02-23T02:30:51;98859.28;;;13.73;42.01
84255;BME280;74400;44.692;18.998;2024-02-23T02:33:21;98860.41;;;13.88;41.47
84255;BME280;74400;44.692;18.998;2024-02-23T02:35:47;98860.78;;;13.93;41.35
84255;BME280;74400;44.692;18.998;2024-02-23T02:38:14;98854.34;;;13.97;41.35
84255;BME280;74400;44.692;18.998;2024-02-23T02:40:40;98862.72;;;13.91;41.82
84255;BME280;74400;44.692;18.998;2024-02-23T02:43:06;98861.88;;;13.91;41.47
84255;BME280;74400;44.692;18.998;2024-02-23T02:45:32;98863.50;;;13.92;41.58
84255;BME280;74400;44.692;18.998;2024-02-23T02:48:00;98858.84;;;13.95;41.43
84255;BME280;74400;44.692;18.998;2024-02-23T02:50:26;98856.78;;;13.99;41.43
84255;BME280;74400;44.692;18.998;2024-02-23T02:52:51;98855.25;;;14.06;40.97
84255;BME280;74400;44.692;18.998;2024-02-23T02:55:17;98855.25;;;14.06;40.88
84255;BME280;74400;44.692;18.998;2024-02-23T02:57:44;98847.31;;;14.07;41.15
84255;BME280;74400;44.692;18.998;2024-02-23T03:00:10;98848.94;;;14.08;40.70
84255;BME280;74400;44.692;18.998;2024-02-23T03:02:36;98850.78;;;14.16;41.19
84255;BME280;74400;44.692;18.998;2024-02-23T03:05:02;98848.50;;;14.13;40.67
84255;BME280;74400;44.692;18.998;2024-02-23T03:07:28;98848.34;;;14.15;41.00
84255;BME280;74400;44.692;18.998;2024-02-23T03:09:53;98840.75;;;14.13;41.08
84255;BME280;74400;44.692;18.998;2024-02-23T03:12:19;98840.81;;;14.21;40.97
84255;BME280;74400;44.692;18.998;2024-02-23T03:14:45;98841.84;;;14.28;40.53
84255;BME280;74400;44.692;18.998;2024-02-23T03:17:10;98838.91;;;14.23;40.60
84255;BME280;74400;44.692;18.998;2024-02-23T03:19:36;98838.81;;;14.15;41.49
84255;BME280;74400;44.692;18.998;2024-02-23T03:22:03;98832.63;;;14.08;41.42
84255;BME280;74400;44.692;18.998;2024-02-23T03:24:28;98846.94;;;14.02;41.71
84255;BME280;74400;44.692;18.998;2024-02-23T03:26:54;98838.53;;;14.00;41.41
84255;BME280;74400;44.692;18.998;2024-02-23T03:29:21;98838.38;;;14.02;41.34
84255;BME280;74400;44.692;18.998;2024-02-23T03:31:50;98830.94;;;13.99;41.41
84255;BME280;74400;44.692;18.998;2024-02-23T03:34:16;98829.81;;;14.01;41.40
84255;BME280;74400;44.692;18.998;2024-02-23T03:36:42;98824.00;;;13.99;41.54
84255;BME280;74400;44.692;18.998;2024-02-23T03:39:08;98825.41;;;13.94;41.64
84255;BME280;74400;44.692;18.998;2024-02-23T03:41:34;98828.63;;;13.96;42.11
84255;BME280;74400;44.692;18.998;2024-02-23T03:43:59;98825.63;;;13.82;42.29
84255;BME280;74400;44.692;18.998;2024-02-23T03:46:25;98837.56;;;13.83;42.33
84255;BME280;74400;44.692;18.998;2024-02-23T03:48:51;98817.88;;;13.82;42.14
84255;BME280;74400;44.692;18.998;2024-02-23T03:51:17;98816.78;;;13.85;41.76
84255;BME280;74400;44.692;18.998;2024-02-23T03:53:43;98818.75;;;13.91;41.82
84255;BME280;74400;44.692;18.998;2024-02-23T03:56:08;98808.28;;;13.93;41.83
84255;BME280;74400;44.692;18.998;2024-02-23T03:58:34;98809.50;;;13.89;42.44
84255;BME280;74400;44.692;18.998;2024-02-23T04:01:00;98802.28;;;13.92;42.38
84255;BME280;74400;44.692;18.998;2024-02-23T04:03:25;98806.78;;;13.90;42.49
84255;BME280;74400;44.692;18.998;2024-02-23T04:05:51;98799.56;;;13.94;42.72
84255;BME280;74400;44.692;18.998;2024-02-23T04:08:17;98799.25;;;13.97;42.46
84255;BME280;74400;44.692;18.998;2024-02-23T04:10:42;98810.25;;;13.99;42.56
84255;BME280;74400;44.692;18.998;2024-02-23T04:13:08;98822.88;;;14.02;42.80
84255;BME280;74400;44.692;18.998;2024-02-23T04:15:34;98822.59;;;14.05;42.95
84255;BME280;74400;44.692;18.998;2024-02-23T04:17:59;98831.53;;;14.11;42.94
84255;BME280;74400;44.692;18.998;2024-02-23T04:20:25;98840.09;;;14.11;42.91
84255;BME280;74400;44.692;18.998;2024-02-23T04:22:51;98839.63;;;14.16;43.17
84255;BME280;74400;44.692;18.998;2024-02-23T04:25:16;98834.03;;;14.20;42.53
84255;BME280;74400;44.692;18.998;2024-02-23T04:27:42;98834.38;;;14.25;42.89
84255;BME280;74400;44.692;18.998;2024-02-23T04:30:10;98833.06;;;14.21;42.55
84255;BME280;74400;44.692;18.998;2024-02-23T04:32:36;98823.41;;;14.05;43.26
84255;BME280;74400;44.692;18.998;2024-02-23T04:35:02;98828.84;;;14.02;43.37
84255;BME280;74400;44.692;18.998;2024-02-23T04:37:27;98818.81;;;13.99;43.32
84255;BME280;74400;44.692;18.998;2024-02-23T04:39:53;98819.09;;;13.96;43.20
84255;BME280;74400;44.692;18.998;2024-02-23T04:42:19;98815.44;;;13.99;43.62
84255;BME280;74400;44.692;18.998;2024-02-23T04:44:44;98811.50;;;13.95;43.55
84255;BME280;74400;44.692;18.998;2024-02-23T04:47:11;98810.84;;;13.93;43.66
84255;BME280;74400;44.692;18.998;2024-02-23T04:49:37;98819.63;;;14.00;43.13
84255;BME280;74400;44.692;18.998;2024-02-23T04:52:04;98812.97;;;13.97;43.65
84255;BME280;74400;44.692;18.998;2024-02-23T04:54:30;98816.47;;;14.06;43.26
84255;BME280;74400;44.692;18.998;2024-02-23T04:56:56;98816.31;;;14.07;42.83
84255;BME280;74400;44.692;18.998;2024-02-23T04:59:22;98811.94;;;14.08;43.04
84255;BME280;74400;44.692;18.998;2024-02-23T05:01:47;98800.13;;;14.05;43.48
84255;BME280;74400;44.692;18.998;2024-02-23T05:04:13;98799.59;;;14.02;43.21
84255;BME280;74400;44.692;18.998;2024-02-23T05:06:38;98800.28;;;14.04;43.11
84255;BME280;74400;44.692;18.998;2024-02-23T05:09:04;98796.75;;;14.05;43.20
84255;BME280;74400;44.692;18.998;2024-02-23T05:11:34;98793.19;;;14.06;42.75
84255;BME280;74400;44.692;18.998;2024-02-23T05:14:00;98797.41;;;14.07;42.82
84255;BME280;74400;44.692;18.998;2024-02-23T05:16:26;98802.25;;;14.10;42.75
84255;BME280;74400;44.692;18.998;2024-02-23T05:18:51;98797.81;;;14.20;42.87
84255;BME280;74400;44.692;18.998;2024-02-23T05:21:17;98796.25;;;14.27;42.74
84255;BME280;74400;44.692;18.998;2024-02-23T05:23:43;98798.03;;;14.27;42.41
84255;BME280;74400;44.692;18.998;2024-02-23T05:26:08;98790.28;;;14.27;42.50
84255;BME280;74400;44.692;18.998;2024-02-23T05:28:36;98789.25;;;14.20;42.45
84255;BME280;74400;44.692;18.998;2024-02-23T05:31:04;98784.53;;;14.15;42.44
84255;BME280;74400;44.692;18.998;2024-02-23T05:33:30;98797.78;;;14.12;42.46
84255;BME280;74400;44.692;18.998;2024-02-23T05:35:56;98783.56;;;14.16;42.12
84255;BME280;74400;44.692;18.998;2024-02-23T05:38:21;98795.34;;;14.11;42.05
84255;BME280;74400;44.692;18.998;2024-02-23T05:40:47;98792.28;;;14.15;41.70
84255;BME280;74400;44.692;18.998;2024-02-23T05:43:14;98796.66;;;14.15;42.13
84255;BME280;74400;44.692;18.998;2024-02-23T05:45:40;98793.63;;;14.19;41.53
84255;BME280;74400;44.692;18.998;2024-02-23T05:48:07;98789.69;;;14.15;40.99
84255;BME280;74400;44.692;18.998;2024-02-23T05:50:39;98785.22;;;14.17;41.01
84255;BME280;74400;44.692;18.998;2024-02-23T05:56:35;98792.19;;;14.25;40.59
84255;BME280;74400;44.692;18.998;2024-02-23T05:59:03;98802.75;;;14.31;40.65
84255;BME280;74400;44.692;18.998;2024-02-23T06:01:29;98803.78;;;14.39;40.35
84255;BME280;74400;44.692;18.998;2024-02-23T06:07:52;98814.72;;;14.50;40.38
84255;BME280;74400;44.692;18.998;2024-02-23T06:10:17;98818.28;;;14.49;40.04
84255;BME280;74400;44.692;18.998;2024-02-23T06:12:43;98819.41;;;14.55;40.16
84255;BME280;74400;44.692;18.998;2024-02-23T06:17:38;98825.97;;;14.67;39.88
84255;BME280;74400;44.692;18.998;2024-02-23T06:20:06;98825.34;;;14.73;39.42
84255;BME280;74400;44.692;18.998;2024-02-23T06:22:33;98827.94;;;14.73;39.59
84255;BME280;74400;44.692;18.998;2024-02-23T06:25:32;98837.41;;;14.82;38.72
84255;BME280;74400;44.692;18.998;2024-02-23T06:27:57;98839.81;;;14.84;38.86
84255;BME280;74400;44.692;18.998;2024-02-23T06:30:23;98841.00;;;14.89;39.00
84255;BME280;74400;44.692;18.998;2024-02-23T06:32:49;98844.53;;;14.88;38.66
84255;BME280;74400;44.692;18.998;2024-02-23T06:35:15;98853.97;;;14.98;38.81
84255;BME280;74400;44.692;18.998;2024-02-23T06:41:16;98859.84;;;15.08;38.67
84255;BME280;74400;44.692;18.998;2024-02-23T06:47:51;98843.97;;;15.03;38.45
84255;BME280;74400;44.692;18.998;2024-02-23T06:50:17;98846.19;;;14.98;38.55
84255;BME280;74400;44.692;18.998;2024-02-23T06:52:43;98836.63;;;14.90;38.91
84255;BME280;74400;44.692;18.998;2024-02-23T06:58:11;98844.75;;;14.95;38.47
84255;BME280;74400;44.692;18.998;2024-02-23T07:00:38;98839.56;;;14.95;38.06
84255;BME280;74400;44.692;18.998;2024-02-23T07:03:04;98845.34;;;14.89;38.73
84255;BME280;74400;44.692;18.998;2024-02-23T07:05:30;98839.16;;;14.82;38.55
84255;BME280;74400;44.692;18.998;2024-02-23T07:07:56;98831.22;;;14.75;38.92
84255;BME280;74400;44.692;18.998;2024-02-23T07:10:21;98833.81;;;14.75;38.98
84255;BME280;74400;44.692;18.998;2024-02-23T07:12:48;98841.88;;;14.80;39.05
84255;BME280;74400;44.692;18.998;2024-02-23T07:18:40;98835.69;;;14.99;38.91
84255;BME280;74400;44.692;18.998;2024-02-23T07:21:07;98842.28;;;14.94;38.73
84255;BME280;74400;44.692;18.998;2024-02-23T07:23:32;98836.34;;;15.01;38.22
84255;BME280;74400;44.692;18.998;2024-02-23T07:29:29;98827.66;;;15.10;38.20
84255;BME280;74400;44.692;18.998;2024-02-23T07:31:55;98833.19;;;15.15;38.38
84255;BME280;74400;44.692;18.998;2024-02-23T07:34:21;98837.13;;;15.28;37.85
84255;BME280;74400;44.692;18.998;2024-02-23T07:37:13;98834.19;;;15.23;38.14
84255;BME280;74400;44.692;18.998;2024-02-23T07:39:39;98837.94;;;15.28;38.03
84255;BME280;74400;44.692;18.998;2024-02-23T07:42:16;98842.50;;;15.42;37.86
84255;BME280;74400;44.692;18.998;2024-02-23T07:44:51;98841.72;;;15.50;37.27
84255;BME280;74400;44.692;18.998;2024-02-23T07:47:17;98838.16;;;15.51;37.09
84255;BME280;74400;44.692;18.998;2024-02-23T07:49:42;98852.25;;;15.49;37.04
84255;BME280;74400;44.692;18.998;2024-02-23T07:52:08;98843.84;;;15.55;36.48
84255;BME280;74400;44.692;18.998;2024-02-23T07:55:16;98846.78;;;15.60;36.26
84255;BME280;74400;44.692;18.998;2024-02-23T07:57:44;98855.22;;;15.70;36.18
84255;BME280;74400;44.692;18.998;2024-02-23T08:00:10;98850.72;;;15.72;35.73
84255;BME280;74400;44.692;18.998;2024-02-23T08:02:38;98850.72;;;15.72;36.17
84255;BME280;74400;44.692;18.998;2024-02-23T08:05:10;98845.88;;;15.85;35.16
84255;BME280;74400;44.692;18.998;2024-02-23T08:07:36;98844.09;;;15.94;35.66
84255;BME280;74400;44.692;18.998;2024-02-23T08:10:06;98844.28;;;15.92;35.14
84255;BME280;74400;44.692;18.998;2024-02-23T08:12:32;98848.16;;;16.13;34.89
84255;BME280;74400;44.692;18.998;2024-02-23T08:14:58;98839.56;;;16.20;35.27
84255;BME280;74400;44.692;18.998;2024-02-23T08:17:24;98838.44;;;16.15;34.09
84255;BME280;74400;44.692;18.998;2024-02-23T08:20:20;98838.13;;;16.26;33.57
84255;BME280;74400;44.692;18.998;2024-02-23T08:22:46;98834.53;;;16.27;33.89
84255;BME280;74400;44.692;18.998;2024-02-23T08:25:55;98836.81;;;16.38;33.94
84255;BME280;74400;44.692;18.998;2024-02-23T08:28:24;98835.66;;;16.41;33.70
84255;BME280;74400;44.692;18.998;2024-02-23T08:30:53;98839.88;;;16.42;33.88
84255;BME280;74400;44.692;18.998;2024-02-23T08:33:19;98836.16;;;16.28;33.68
84255;BME280;74400;44.692;18.998;2024-02-23T08:35:47;98842.66;;;16.40;34.53
84255;BME280;74400;44.692;18.998;2024-02-23T08:38:24;98833.06;;;16.41;33.66
84255;BME280;74400;44.692;18.998;2024-02-23T08:41:32;98831.31;;;16.49;33.70
84255;BME280;74400;44.692;18.998;2024-02-23T08:43:58;98832.25;;;16.48;33.97
84255;BME280;74400;44.692;18.998;2024-02-23T08:46:24;98834.03;;;16.48;33.74
84255;BME280;74400;44.692;18.998;2024-02-23T08:48:49;98834.53;;;16.35;33.44
84255;BME280;74400;44.692;18.998;2024-02-23T08:51:15;98833.09;;;16.33;33.42
84255;BME280;74400;44.692;18.998;2024-02-23T08:53:41;98828.69;;;16.41;34.38
84255;BME280;74400;44.692;18.998;2024-02-23T08:56:13;98828.69;;;16.49;33.72
84255;BME280;74400;44.692;18.998;2024-02-23T08:58:42;98831.28;;;16.58;34.92
84255;BME280;74400;44.692;18.998;2024-02-23T09:01:13;98828.19;;;16.62;33.97
84255;BME280;74400;44.692;18.998;2024-02-23T09:03:41;98824.13;;;16.60;33.95
84255;BME280;74400;44.692;18.998;2024-02-23T09:06:06;98822.53;;;16.50;34.21
84255;BME280;74400;44.692;18.998;2024-02-23T09:08:32;98831.44;;;16.56;33.85
84255;BME280;74400;44.692;18.998;2024-02-23T09:10:58;98825.75;;;16.61;34.21
84255;BME280;74400;44.692;18.998;2024-02-23T09:13:24;98826.06;;;16.74;33.76
84255;BME280;74400;44.692;18.998;2024-02-23T09:15:52;98825.75;;;16.77;34.00
84255;BME280;74400;44.692;18.998;2024-02-23T09:18:21;98825.41;;;16.80;34.74
84255;BME280;74400;44.692;18.998;2024-02-23T09:20:47;98833.19;;;16.88;35.43
84255;BME280;74400;44.692;18.998;2024-02-23T09:23:13;98830.53;;;17.04;34.57
84255;BME280;74400;44.692;18.998;2024-02-23T09:25:39;98839.53;;;17.25;32.92
84255;BME280;74400;44.692;18.998;2024-02-23T09:28:04;98837.25;;;17.30;33.29
84255;BME280;74400;44.692;18.998;2024-02-23T09:30:30;98831.19;;;17.69;32.82
84255;BME280;74400;44.692;18.998;2024-02-23T09:40:10;98837.47;;;17.82;32.07
84255;BME280;74400;44.692;18.998;2024-02-23T09:42:39;98839.59;;;17.48;32.59
84255;BME280;74400;44.692;18.998;2024-02-23T09:45:06;98839.53;;;17.33;32.31
84255;BME280;74400;44.692;18.998;2024-02-23T09:47:33;98840.47;;;17.40;32.69
84255;BME280;74400;44.692;18.998;2024-02-23T09:50:09;98829.16;;;17.25;32.30
84255;BME280;74400;44.692;18.998;2024-02-23T09:52:37;98826.94;;;17.14;32.42
84255;BME280;74400;44.692;18.998;2024-02-23T10:00:39;98826.72;;;17.23;32.28
84255;BME280;74400;44.692;18.998;2024-02-23T10:06:10;98824.16;;;17.15;32.90
84255;BME280;74400;44.692;18.998;2024-02-23T10:08:35;98827.53;;;17.24;32.60
84255;BME280;74400;44.692;18.998;2024-02-23T10:11:01;98826.72;;;17.23;32.79
84255;BME280;74400;44.692;18.998;2024-02-23T10:13:29;98828.34;;;17.24;32.68
84255;BME280;74400;44.692;18.998;2024-02-23T10:15:55;98810.25;;;17.39;33.04
84255;BME280;74400;44.692;18.998;2024-02-23T10:18:21;98816.63;;;17.59;32.54
84255;BME280;74400;44.692;18.998;2024-02-23T10:20:47;98802.13;;;17.73;32.53
84255;BME280;74400;44.692;18.998;2024-02-23T10:23:13;98814.19;;;17.89;32.01
84255;BME280;74400;44.692;18.998;2024-02-23T10:25:39;98810.72;;;17.74;32.08
84255;BME280;74400;44.692;18.998;2024-02-23T10:31:40;98799.97;;;17.77;32.77
84255;BME280;74400;44.692;18.998;2024-02-23T10:34:09;98786.47;;;17.96;32.66
84255;BME280;74400;44.692;18.998;2024-02-23T10:36:40;98803.72;;;17.97;32.89
84255;BME280;74400;44.692;18.998;2024-02-23T10:40:12;98797.84;;;18.03;32.95
84255;BME280;74400;44.692;18.998;2024-02-23T10:42:43;98792.38;;;18.13;32.38
84255;BME280;74400;44.692;18.998;2024-02-23T10:48:17;98790.44;;;17.92;32.70
84255;BME280;74400;44.692;18.998;2024-02-23T10:50:43;98783.34;;;17.86;32.76
84255;BME280;74400;44.692;18.998;2024-02-23T10:53:10;98790.22;;;17.79;34.27
84255;BME280;74400;44.692;18.998;2024-02-23T10:55:37;98780.50;;;17.73;34.27
84255;BME280;74400;44.692;18.998;2024-02-23T10:58:06;98784.84;;;17.80;33.75
84255;BME280;74400;44.692;18.998;2024-02-23T11:00:36;98780.66;;;17.94;33.36
84255;BME280;74400;44.692;18.998;2024-02-23T11:03:03;98783.88;;;17.96;33.26
84255;BME280;74400;44.692;18.998;2024-02-23T11:09:06;98790.06;;;17.95;33.44
84255;BME280;74400;44.692;18.998;2024-02-23T11:11:36;98786.59;;;18.03;32.62
84255;BME280;74400;44.692;18.998;2024-02-23T11:14:13;98802.47;;;17.93;32.88
84255;BME280;74400;44.692;18.998;2024-02-23T11:16:40;98810.38;;;17.69;33.03
84255;BME280;74400;44.692;18.998;2024-02-23T11:19:09;98808.28;;;17.41;33.71
84255;BME280;74400;44.692;18.998;2024-02-23T11:21:37;98820.44;;;17.10;35.46
84255;BME280;74400;44.692;18.998;2024-02-23T11:24:04;98822.78;;;16.96;37.16
84255;BME280;74400;44.692;18.998;2024-02-23T11:26:31;98824.63;;;16.63;40.62
84255;BME280;74400;44.692;18.998;2024-02-23T11:29:09;98801.63;;;16.44;41.93
84255;BME280;74400;44.692;18.998;2024-02-23T11:31:46;98811.69;;;16.22;41.35
84255;BME280;74400;44.692;18.998;2024-02-23T11:34:11;98815.75;;;16.25;42.85
84255;BME280;74400;44.692;18.998;2024-02-23T11:36:39;98808.63;;;16.19;40.96
84255;BME280;74400;44.692;18.998;2024-02-23T11:39:09;98817.03;;;16.29;39.67
84255;BME280;74400;44.692;18.998;2024-02-23T11:41:39;98811.69;;;16.22;38.86
84255;BME280;74400;44.692;18.998;2024-02-23T11:44:08;98815.25;;;16.05;39.96
84255;BME280;74400;44.692;18.998;2024-02-23T11:46:34;98826.75;;;15.86;42.48
84255;BME280;74400;44.692;18.998;2024-02-23T11:49:00;98815.88;;;15.83;41.08
84255;BME280;74400;44.692;18.998;2024-02-23T11:51:58;98818.94;;;15.62;45.02
84255;BME280;74400;44.692;18.998;2024-02-23T11:54:24;98821.38;;;15.21;45.87
84255;BME280;74400;44.692;18.998;2024-02-23T11:56:51;98818.66;;;14.88;47.13
84255;BME280;74400;44.692;18.998;2024-02-23T11:59:51;98804.66;;;14.73;47.41
84255;BME280;74400;44.692;18.998;2024-02-23T12:02:17;98798.78;;;14.63;48.26
84255;BME280;74400;44.692;18.998;2024-02-23T12:04:51;98797.06;;;14.28;48.73
84255;BME280;74400;44.692;18.998;2024-02-23T12:07:17;98786.03;;;14.00;48.97
84255;BME280;74400;44.692;18.998;2024-02-23T12:09:44;98780.38;;;13.78;49.23
84255;BME280;74400;44.692;18.998;2024-02-23T12:12:10;98782.22;;;13.68;51.57
84255;BME280;74400;44.692;18.998;2024-02-23T12:14:36;98773.66;;;13.68;50.11
84255;BME280;74400;44.692;18.998;2024-02-23T12:17:03;98781.47;;;13.76;48.41
84255;BME280;74400;44.692;18.998;2024-02-23T12:19:31;98786.47;;;13.77;49.31
84255;BME280;74400;44.692;18.998;2024-02-23T12:22:00;98782.59;;;13.91;49.38
84255;BME280;74400;44.692;18.998;2024-02-23T12:24:27;98772.50;;;14.06;50.56
84255;BME280;74400;44.692;18.998;2024-02-23T12:26:56;98773.38;;;14.15;51.01
84255;BME280;74400;44.692;18.998;2024-02-23T12:29:22;98761.34;;;14.23;50.76
84255;BME280;74400;44.692;18.998;2024-02-23T12:31:48;98753.47;;;14.33;47.44
84255;BME280;74400;44.692;18.998;2024-02-23T12:34:14;98751.53;;;14.61;45.84
84255;BME280;74400;44.692;18.998;2024-02-23T12:36:40;98755.44;;;14.65;46.09
84255;BME280;74400;44.692;18.998;2024-02-23T12:43:17;98743.53;;;14.80;46.50
84255;BME280;74400;44.692;18.998;2024-02-23T12:45:43;98752.00;;;14.90;44.50
84255;BME280;74400;44.692;18.998;2024-02-23T12:48:15;98753.81;;;15.06;44.44
84255;BME280;74400;44.692;18.998;2024-02-23T12:50:42;98746.88;;;15.07;45.12
84255;BME280;74400;44.692;18.998;2024-02-23T12:53:09;98741.19;;;15.03;43.88
84255;BME280;74400;44.692;18.998;2024-02-23T12:55:35;98737.34;;;15.07;44.11
84255;BME280;74400;44.692;18.998;2024-02-23T12:58:02;98740.41;;;15.19;42.83
84255;BME280;74400;44.692;18.998;2024-02-23T13:00:28;98739.16;;;15.31;41.68
84255;BME280;74400;44.692;18.998;2024-02-23T13:03:24;98726.88;;;15.41;40.70
84255;BME280;74400;44.692;18.998;2024-02-23T13:05:49;98719.91;;;15.50;39.76
84255;BME280;74400;44.692;18.998;2024-02-23T13:08:19;98707.13;;;15.57;39.13
84255;BME280;74400;44.692;18.998;2024-02-23T13:10:44;98717.69;;;15.63;40.75
84255;BME280;74400;44.692;18.998;2024-02-23T13:13:11;98719.47;;;15.63;37.98
84255;BME280;74400;44.692;18.998;2024-02-23T13:15:38;98718.34;;;15.74;39.06
84255;BME280;74400;44.692;18.998;2024-02-23T13:18:04;98714.94;;;15.81;38.12
84255;BME280;74400;44.692;18.998;2024-02-23T13:20:31;98709.75;;;15.81;37.95
84255;BME280;74400;44.692;18.998;2024-02-23T13:22:57;98709.75;;;15.81;41.51
84255;BME280;74400;44.692;18.998;2024-02-23T13:25:27;98715.88;;;15.56;46.06
84255;BME280;74400;44.692;18.998;2024-02-23T13:27:53;98719.59;;;15.37;46.33
84255;BME280;74400;44.692;18.998;2024-02-23T13:30:19;98717.16;;;15.27;47.20
84255;BME280;74400;44.692;18.998;2024-02-23T13:32:45;98722.28;;;15.11;47.30
84255;BME280;74400;44.692;18.998;2024-02-23T13:35:10;98714.50;;;15.11;44.25
84255;BME280;74400;44.692;18.998;2024-02-23T13:37:36;98712.59;;;15.21;43.03
84255;BME280;74400;44.692;18.998;2024-02-23T13:45:50;98712.25;;;15.08;45.17
84255;BME280;74400;44.692;18.998;2024-02-23T13:48:18;98710.44;;;15.00;44.36
84255;BME280;74400;44.692;18.998;2024-02-23T13:50:45;98701.03;;;14.91;42.88
84255;BME280;74400;44.692;18.998;2024-02-23T13:53:12;98700.25;;;15.07;43.44
84255;BME280;74400;44.692;18.998;2024-02-23T13:55:39;98703.34;;;15.18;43.59
84255;BME280;74400;44.692;18.998;2024-02-23T13:58:06;98699.00;;;15.19;41.66
84255;BME280;74400;44.692;18.998;2024-02-23T14:00:39;98699.81;;;15.28;41.24